createdAt,value
2018-10-12T00:02:14.656Z,98917.42
2018-10-12T00:04:42.950Z,98920.31
2018-10-12T00:07:11.285Z,98924.22
2018-10-12T00:09:39.553Z,98932.52
2018-10-12T00:12:07.841Z,98928.33
2018-10-12T00:14:36.213Z,98928.02
2018-10-12T00:17:04.530Z,98936.92
2018-10-12T00:19:32.804Z,98930.83
2018-10-12T00:22:01.134Z,98931.19
2018-10-12T00:24:29.393Z,98936.20
2018-10-12T00:26:57.786Z,98937.85
2018-10-12T00:29:26.056Z,98937.36
2018-10-12T00:31:54.346Z,98946.38
2018-10-12T00:34:22.630Z,98941.05
2018-10-12T00:36:50.925Z,98946.86
2018-10-12T00:39:19.190Z,98946.12
2018-10-12T00:41:47.530Z,98949.41
2018-10-12T00:44:15.783Z,98954.61
2018-10-12T00:46:50.343Z,98949.70
2018-10-12T00:49:18.621Z,98949.92
2018-10-12T00:51:46.933Z,98959.52
2018-10-12T00:54:15.201Z,98956.58
2018-10-12T00:56:43.502Z,98954.89
2018-10-12T00:59:11.765Z,98961.00
2018-10-12T01:01:40.079Z,98962.18
2018-10-12T01:04:08.341Z,98958.91
2018-10-12T01:06:36.718Z,98966.97
2018-10-12T01:09:05.201Z,98962.64
2018-10-12T01:11:33.601Z,98965.37
2018-10-12T01:14:01.878Z,98966.48
2018-10-12T01:16:30.210Z,98962.51
2018-10-12T01:18:58.457Z,98963.63
2018-10-12T01:21:26.769Z,98960.66
2018-10-12T01:23:55.042Z,98963.00
2018-10-12T01:26:23.387Z,98959.45
2018-10-12T01:28:55.853Z,98962.29
2018-10-12T01:31:24.772Z,98964.52
2018-10-12T01:33:53.210Z,98958.14
2018-10-12T01:36:21.677Z,98954.55
2018-10-12T01:38:50.177Z,98962.20
2018-10-12T01:41:18.490Z,98953.42
2018-10-12T01:43:46.835Z,98970.70
2018-10-12T01:46:15.143Z,98963.89
2018-10-12T01:48:43.505Z,98970.05
2018-10-12T01:51:11.833Z,98966.85
2018-10-12T01:53:40.117Z,98963.98
2018-10-12T01:56:08.410Z,98968.89
2018-10-12T01:58:36.678Z,98968.34
2018-10-12T02:01:05.017Z,98962.72
2018-10-12T02:03:33.316Z,98972.55
2018-10-12T02:06:01.581Z,98975.64
2018-10-12T02:08:29.873Z,98966.34
2018-10-12T02:10:58.146Z,98972.10
2018-10-12T02:13:26.467Z,98969.22
2018-10-12T02:15:54.730Z,98979.98
2018-10-12T02:18:23.036Z,98979.34
2018-10-12T02:23:25.709Z,98981.94
2018-10-12T02:25:54.032Z,98984.38
2018-10-12T02:28:22.311Z,98982.19
2018-10-12T02:30:50.624Z,98981.63
2018-10-12T02:33:18.893Z,98974.81
2018-10-12T02:35:47.205Z,98982.27
2018-10-12T02:38:15.494Z,98979.23
2018-10-12T02:40:43.814Z,98979.20
2018-10-12T02:43:12.113Z,98987.50
2018-10-12T02:45:40.417Z,98986.58
2018-10-12T02:48:08.711Z,98990.23
2018-10-12T02:50:37.030Z,98987.91
2018-10-12T02:53:05.711Z,99000.50
2018-10-12T02:55:34.021Z,98999.87
2018-10-12T02:58:02.343Z,99008.38
2018-10-12T03:00:30.617Z,99001.27
2018-10-12T03:02:58.889Z,99010.45
2018-10-12T03:05:27.181Z,99011.62
2018-10-12T03:07:55.509Z,99011.55
2018-10-12T03:10:23.823Z,99018.89
2018-10-12T03:12:52.090Z,99020.51
2018-10-12T03:15:20.393Z,99025.46
2018-10-12T03:17:48.687Z,99017.16
2018-10-12T03:20:16.980Z,99024.50
2018-10-12T03:22:45.261Z,99022.10
2018-10-12T03:25:13.545Z,99026.03
2018-10-12T03:27:53.230Z,99032.78
2018-10-12T03:30:21.591Z,99030.06
2018-10-12T03:32:50.841Z,99023.17
2018-10-12T03:35:19.326Z,99027.95
2018-10-12T03:37:47.662Z,99032.50
2018-10-12T03:40:16.008Z,99040.09
2018-10-12T03:42:44.390Z,99039.20
2018-10-12T03:45:12.696Z,99038.45
2018-10-12T03:47:41.058Z,99047.66
2018-10-12T03:50:09.370Z,99047.43
2018-10-12T03:52:37.698Z,99044.05
2018-10-12T03:55:12.573Z,99049.03
2018-10-12T03:57:40.858Z,99051.08
2018-10-12T04:00:09.128Z,99056.00
2018-10-12T04:02:37.443Z,99068.67
2018-10-12T04:05:05.989Z,99065.72
2018-10-12T04:07:34.300Z,99070.56
2018-10-12T04:10:02.673Z,99061.98
2018-10-12T04:12:30.981Z,99068.91
2018-10-12T04:14:59.295Z,99058.63
2018-10-12T04:17:27.603Z,99053.72
2018-10-12T04:19:55.889Z,99054.27
2018-10-12T04:22:25.820Z,99071.40
2018-10-12T04:24:54.192Z,99074.97
2018-10-12T04:27:22.808Z,99080.52
2018-10-12T04:29:51.289Z,99081.11
2018-10-12T04:32:19.631Z,99084.11
2018-10-12T04:34:48.425Z,99086.43
2018-10-12T04:37:17.160Z,99088.73
2018-10-12T04:41:07.613Z,99088.72
2018-10-12T04:43:36.125Z,99096.98
2018-10-12T04:46:06.649Z,99105.44
2018-10-12T04:48:36.004Z,99105.94
2018-10-12T04:51:05.553Z,99095.02
2018-10-12T04:53:34.056Z,99117.67
2018-10-12T04:56:02.555Z,99104.36
2018-10-12T04:58:31.104Z,99103.75
2018-10-12T05:00:59.496Z,99106.80
2018-10-12T05:03:27.879Z,99098.90
2018-10-12T05:05:56.243Z,99105.89
2018-10-12T05:08:24.675Z,99113.20
2018-10-12T05:10:53.043Z,99109.69
2018-10-12T05:13:21.415Z,99116.44
2018-10-12T05:15:49.860Z,99120.95
2018-10-12T05:18:18.221Z,99108.23
2018-10-12T05:20:46.592Z,99116.72
2018-10-12T05:23:15.019Z,99118.73
2018-10-12T05:25:43.571Z,99130.39
2018-10-12T05:28:12.639Z,99139.30
2018-10-12T05:30:42.829Z,99127.73
2018-10-12T05:33:11.828Z,99137.13
2018-10-12T05:35:40.349Z,99149.83
2018-10-12T05:38:08.794Z,99141.51
2018-10-12T05:40:37.338Z,99158.36
2018-10-12T05:43:06.333Z,99155.20
2018-10-12T05:45:35.194Z,99164.77
2018-10-12T05:48:15.135Z,99169.79
2018-10-12T05:50:43.586Z,99175.88
2018-10-12T05:53:12.049Z,99177.32
2018-10-12T05:55:40.498Z,99172.03
2018-10-12T05:58:08.851Z,99166.22
2018-10-12T06:00:37.224Z,99182.28
2018-10-12T06:03:05.571Z,99183.13
2018-10-12T06:05:33.984Z,99197.08
2018-10-12T06:08:02.310Z,99195.20
2018-10-12T06:10:30.983Z,99193.83
2018-10-12T06:12:59.414Z,99198.64
2018-10-12T06:15:27.824Z,99203.49
2018-10-12T06:17:56.196Z,99205.42
2018-10-12T06:20:24.510Z,99207.52
2018-10-12T06:22:52.946Z,99214.53
2018-10-12T06:25:21.312Z,99212.20
2018-10-12T06:27:49.681Z,99207.14
2018-10-12T06:30:18.038Z,99213.08
2018-10-12T06:32:46.400Z,99213.95
2018-10-12T06:35:14.784Z,99224.23
2018-10-12T06:37:43.146Z,99227.62
2018-10-12T06:40:11.493Z,99228.45
2018-10-12T06:42:39.928Z,99234.78
2018-10-12T06:45:08.282Z,99243.59
2018-10-12T06:47:36.681Z,99250.88
2018-10-12T06:50:05.440Z,99243.58
2018-10-12T06:52:34.078Z,99246.96
2018-10-12T06:55:02.471Z,99253.23
2018-10-12T06:57:30.818Z,99259.55
2018-10-12T06:59:59.233Z,99254.32
2018-10-12T07:02:27.606Z,99271.84
2018-10-12T07:04:56.015Z,99265.50
2018-10-12T07:07:24.443Z,99264.36
2018-10-12T07:09:52.799Z,99265.92
2018-10-12T07:12:21.136Z,99280.44
2018-10-12T07:14:49.502Z,99281.78
2018-10-12T07:17:17.892Z,99281.81
2018-10-12T07:19:46.235Z,99287.53
2018-10-12T07:22:14.608Z,99295.05
2018-10-12T07:24:42.973Z,99295.81
2018-10-12T07:27:11.314Z,99292.73
2018-10-12T07:29:39.684Z,99294.20
2018-10-12T07:32:08.079Z,99293.05
2018-10-12T07:34:36.407Z,99291.85
2018-10-12T07:37:04.802Z,99299.63
2018-10-12T07:39:33.111Z,99295.56
2018-10-12T07:42:01.479Z,99297.75
2018-10-12T07:44:29.796Z,99293.80
2018-10-12T07:46:58.278Z,99294.09
2018-10-12T07:49:26.646Z,99300.95
2018-10-12T07:51:55.130Z,99306.48
2018-10-12T07:54:23.607Z,99301.95
2018-10-12T07:56:52.132Z,99301.70
2018-10-12T07:59:20.508Z,99307.81
2018-10-12T08:01:49.147Z,99304.62
2018-10-12T08:04:17.891Z,99296.73
2018-10-12T08:06:46.465Z,99301.90
2018-10-12T08:09:15.092Z,99295.51
2018-10-12T08:11:43.599Z,99295.95
2018-10-12T08:14:12.211Z,99297.53
2018-10-12T08:16:40.551Z,99307.49
2018-10-12T08:19:11.636Z,99311.00
2018-10-12T08:21:40.362Z,99312.86
2018-10-12T08:24:09.066Z,99313.47
2018-10-12T08:26:37.459Z,99315.44
2018-10-12T08:29:06.028Z,99321.76
2018-10-12T08:31:34.537Z,99321.52
2018-10-12T08:34:02.965Z,99338.91
2018-10-12T08:36:32.025Z,99342.83
2018-10-12T08:39:00.555Z,99342.45
2018-10-12T08:41:28.954Z,99347.00
2018-10-12T08:43:57.315Z,99345.77
2018-10-12T08:46:26.052Z,99354.20
2018-10-12T08:48:54.433Z,99354.53
2018-10-12T08:51:22.792Z,99361.23
2018-10-12T08:53:51.158Z,99355.56
2018-10-12T08:56:19.493Z,99359.59
2018-10-12T08:58:47.851Z,99358.08
2018-10-12T09:01:16.182Z,99357.09
2018-10-12T09:03:44.760Z,99363.83
2018-10-12T09:06:13.098Z,99371.94
2018-10-12T09:08:41.451Z,99382.38
2018-10-12T09:11:09.787Z,99375.30
2018-10-12T09:13:38.267Z,99375.30
2018-10-12T09:16:07.111Z,99373.12
2018-10-12T09:18:35.650Z,99367.64
2018-10-12T09:21:04.178Z,99366.52
2018-10-12T09:23:32.567Z,99374.94
2018-10-12T09:26:00.876Z,99372.08
2018-10-12T09:28:29.257Z,99373.25
2018-10-12T09:30:57.589Z,99376.43
2018-10-12T09:33:26.075Z,99385.91
2018-10-12T09:35:54.403Z,99390.42
2018-10-12T09:38:22.765Z,99390.02
2018-10-12T09:40:51.151Z,99396.39
2018-10-12T09:43:19.578Z,99400.86
2018-10-12T09:45:47.878Z,99393.00
2018-10-12T09:48:16.255Z,99396.66
2018-10-12T09:50:44.578Z,99397.66
2018-10-12T09:53:13.051Z,99404.47
2018-10-12T09:55:41.432Z,99408.38
2018-10-12T09:58:09.931Z,99413.27
2018-10-12T10:00:43.614Z,99420.73
2018-10-12T10:03:17.196Z,99407.50
2018-10-12T10:05:45.546Z,99410.55
2018-10-12T10:08:13.930Z,99403.80
2018-10-12T10:10:42.534Z,99391.25
2018-10-12T10:13:10.919Z,99391.52
2018-10-12T10:15:39.240Z,99392.16
2018-10-12T10:18:07.627Z,99393.48
2018-10-12T10:20:35.951Z,99396.48
2018-10-12T10:23:04.298Z,99404.17
2018-10-12T10:25:32.638Z,99401.39
2018-10-12T10:28:00.971Z,99394.98
2018-10-12T10:30:29.446Z,99394.29
2018-10-12T10:32:57.797Z,99388.47
2018-10-12T10:35:26.115Z,99391.47
2018-10-12T10:37:54.460Z,99390.75
2018-10-12T10:40:43.963Z,99389.77
2018-10-12T10:43:13.046Z,99386.92
2018-10-12T10:45:41.460Z,99383.52
2018-10-12T10:48:16.769Z,99384.11
2018-10-12T10:50:45.297Z,99376.33
2018-10-12T10:53:13.746Z,99376.19
2018-10-12T10:55:42.103Z,99372.75
2018-10-12T10:58:10.661Z,99369.38
2018-10-12T11:00:41.994Z,99376.11
2018-10-12T11:03:10.393Z,99377.03
2018-10-12T11:05:38.927Z,99373.80
2018-10-12T11:08:07.408Z,99371.20
2018-10-12T11:10:35.902Z,99368.19
2018-10-12T11:13:04.482Z,99373.09
2018-10-12T11:15:32.976Z,99362.83
2018-10-12T11:18:01.500Z,99356.31
2018-10-12T11:20:29.931Z,99359.14
2018-10-12T11:22:59.018Z,99356.08
2018-10-12T11:25:27.493Z,99361.12
2018-10-12T11:27:55.983Z,99356.59
2018-10-12T11:30:24.653Z,99352.07
2018-10-12T11:32:53.089Z,99353.59
2018-10-12T11:35:21.442Z,99351.62
2018-10-12T11:37:50.036Z,99345.87
2018-10-12T11:40:18.675Z,99340.98
2018-10-12T11:42:58.396Z,99341.57
2018-10-12T11:45:26.998Z,99347.27
2018-10-12T11:47:55.323Z,99341.70
2018-10-12T11:50:23.868Z,99343.31
2018-10-12T11:52:52.443Z,99343.83
2018-10-12T11:55:20.963Z,99344.14
2018-10-12T11:57:49.389Z,99344.48
2018-10-12T12:00:17.936Z,99349.66
2018-10-12T12:02:46.659Z,99356.64
2018-10-12T12:05:15.134Z,99350.75
2018-10-12T12:07:43.478Z,99350.52
2018-10-12T12:10:12.025Z,99351.52
2018-10-12T12:12:40.491Z,99355.02
2018-10-12T12:15:09.018Z,99349.83
2018-10-12T12:17:37.528Z,99353.19
2018-10-12T12:20:06.003Z,99360.37
2018-10-12T12:22:34.499Z,99348.16
2018-10-12T12:25:02.853Z,99356.86
2018-10-12T12:27:31.312Z,99355.72
2018-10-12T12:29:59.665Z,99358.97
2018-10-12T12:32:28.108Z,99361.73
2018-10-12T12:34:56.588Z,99360.05
2018-10-12T12:37:25.029Z,99357.06
2018-10-12T12:39:53.471Z,99354.88
2018-10-12T12:42:21.865Z,99355.67
2018-10-12T12:44:50.195Z,99351.95
2018-10-12T12:47:18.767Z,99354.98
2018-10-12T12:49:47.123Z,99358.53
2018-10-12T12:52:15.575Z,99349.77
2018-10-12T12:54:43.943Z,99355.70
2018-10-12T12:57:12.434Z,99353.27
2018-10-12T12:59:40.802Z,99354.43
2018-10-12T13:02:09.714Z,99353.83
2018-10-12T13:04:38.138Z,99349.66
2018-10-12T13:07:06.475Z,99349.61
2018-10-12T13:09:34.921Z,99351.66
2018-10-12T13:12:03.375Z,99348.70
2018-10-12T13:14:31.752Z,99347.92
2018-10-12T13:17:00.288Z,99352.67
2018-10-12T13:19:28.907Z,99355.80
2018-10-12T13:21:57.570Z,99356.66
2018-10-12T13:24:26.037Z,99353.09
2018-10-12T13:26:54.580Z,99356.62
2018-10-12T13:29:22.968Z,99348.70
2018-10-12T13:31:51.349Z,99354.55
2018-10-12T13:34:19.791Z,99360.40
2018-10-12T13:36:48.294Z,99360.34
2018-10-12T13:39:16.656Z,99358.34
2018-10-12T13:41:45.003Z,99362.80
2018-10-12T13:44:13.340Z,99363.64
2018-10-12T13:46:41.761Z,99363.14
2018-10-12T13:49:10.096Z,99368.24
2018-10-12T13:51:38.515Z,99366.09
2018-10-12T13:54:06.887Z,99365.59
2018-10-12T13:56:35.267Z,99366.61
2018-10-12T13:59:03.592Z,99369.73
2018-10-12T14:01:32.256Z,99369.48
2018-10-12T14:04:00.716Z,99371.91
2018-10-12T14:06:29.174Z,99372.25
2018-10-12T14:08:57.524Z,99371.22
2018-10-12T14:11:25.846Z,99370.70
2018-10-12T14:13:54.229Z,99375.36
2018-10-12T14:16:22.698Z,99374.40
2018-10-12T14:18:51.371Z,99369.11
2018-10-12T14:21:22.530Z,99375.56
2018-10-12T14:23:50.994Z,99376.11
2018-10-12T14:26:19.335Z,99370.06
2018-10-12T14:28:47.670Z,99367.91
2018-10-12T14:31:16.180Z,99365.19
2018-10-12T14:33:44.499Z,99365.84
2018-10-12T14:36:12.902Z,99365.52
2018-10-12T14:38:41.222Z,99368.11
2018-10-12T14:41:09.575Z,99369.64
2018-10-12T14:43:37.982Z,99365.25
2018-10-12T14:46:06.607Z,99360.28
2018-10-12T14:48:36.276Z,99363.01
2018-10-12T14:51:04.618Z,99367.54
2018-10-12T14:53:33.020Z,99368.14
2018-10-12T14:56:01.331Z,99360.42
2018-10-12T14:58:29.623Z,99366.98
2018-10-12T15:00:57.965Z,99368.50
2018-10-12T15:03:26.452Z,99363.74
2018-10-12T15:05:54.754Z,99361.86
2018-10-12T15:08:23.096Z,99363.55
2018-10-12T15:10:51.434Z,99363.22
2018-10-12T15:13:19.840Z,99369.81
2018-10-12T15:15:48.173Z,99370.66
2018-10-12T15:18:16.570Z,99372.60
2018-10-12T15:20:44.919Z,99370.75
2018-10-12T15:23:13.308Z,99371.18
2018-10-12T15:25:41.695Z,99372.34
2018-10-12T15:28:10.046Z,99372.28
2018-10-12T15:30:38.386Z,99378.75
2018-10-12T15:33:06.784Z,99378.92
2018-10-12T15:35:35.155Z,99380.22
2018-10-12T15:38:03.507Z,99380.96
2018-10-12T15:40:31.935Z,99377.53
2018-10-12T15:43:00.371Z,99383.92
2018-10-12T15:45:28.631Z,99382.24
2018-10-12T15:47:56.958Z,99389.09
2018-10-12T15:50:25.274Z,99388.24
2018-10-12T15:52:54.203Z,99395.80
2018-10-12T15:55:22.515Z,99388.33
2018-10-12T15:57:50.907Z,99398.47
2018-10-12T16:00:19.228Z,99399.95
2018-10-12T16:02:47.608Z,99396.28
2018-10-12T16:05:15.999Z,99402.66
2018-10-12T16:07:44.347Z,99401.06
2018-10-12T16:10:12.772Z,99401.20
2018-10-12T16:12:41.107Z,99403.28
2018-10-12T16:15:09.500Z,99399.97
2018-10-12T16:17:37.859Z,99410.36
2018-10-12T16:20:06.463Z,99417.83
2018-10-12T16:22:34.933Z,99416.20
2018-10-12T16:25:14.591Z,99417.92
2018-10-12T16:27:42.958Z,99426.76
2018-10-12T16:30:11.369Z,99426.92
2018-10-12T16:32:39.667Z,99428.28
2018-10-12T16:35:08.006Z,99429.80
2018-10-12T16:37:36.359Z,99435.73
2018-10-12T16:40:04.743Z,99435.38
2018-10-12T16:42:33.207Z,99435.35
2018-10-12T16:45:01.633Z,99436.20
2018-10-12T16:47:30.638Z,99441.05
2018-10-12T16:49:59.126Z,99436.59
2018-10-12T16:52:27.831Z,99433.00
2018-10-12T16:54:56.312Z,99437.77
2018-10-12T16:57:31.169Z,99444.83
2018-10-12T17:00:00.387Z,99444.81
2018-10-12T17:02:28.803Z,99446.42
2018-10-12T17:04:57.437Z,99447.73
2018-10-12T17:07:26.031Z,99442.63
2018-10-12T17:09:55.076Z,99444.96
2018-10-12T17:12:23.585Z,99461.39
2018-10-12T17:14:51.941Z,99458.10
2018-10-12T17:17:20.750Z,99459.03
2018-10-12T17:19:49.111Z,99461.72
2018-10-12T17:22:18.288Z,99460.64
2018-10-12T17:24:49.524Z,99463.56
2018-10-12T17:27:24.558Z,99465.41
2018-10-12T17:30:00.814Z,99462.28
2018-10-12T17:32:31.126Z,99467.39
2018-10-12T17:35:02.573Z,99471.36
2018-10-12T17:37:32.413Z,99470.64
2018-10-12T17:40:01.233Z,99470.48
2018-10-12T17:42:33.863Z,99474.80
2018-10-12T17:45:03.643Z,99474.34
2018-10-12T17:47:32.140Z,99477.76
2018-10-12T17:50:03.069Z,99479.29
2018-10-12T17:52:31.933Z,99479.06
2018-10-12T17:55:04.169Z,99485.64
2018-10-12T17:57:34.606Z,99487.21
2018-10-12T18:00:06.398Z,99483.73
2018-10-12T18:02:35.742Z,99483.84
2018-10-12T18:05:07.999Z,99483.25
2018-10-12T18:07:39.256Z,99486.44
2018-10-12T18:10:10.731Z,99487.33
2018-10-12T18:12:41.629Z,99492.70
2018-10-12T18:15:24.073Z,99491.94
2018-10-12T18:17:52.714Z,99492.44
2018-10-12T18:20:28.369Z,99489.95
2018-10-12T18:22:59.478Z,99494.41
2018-10-12T18:28:11.639Z,99500.09
2018-10-12T18:31:05.897Z,99496.75
2018-10-12T18:36:34.870Z,99497.11
2018-10-12T18:39:03.348Z,99502.38
2018-10-12T18:41:31.811Z,99503.72
2018-10-12T18:44:00.412Z,99496.51
2018-10-12T18:46:29.797Z,99499.14
2018-10-12T18:48:58.393Z,99498.09
2018-10-12T18:51:28.664Z,99509.83
2018-10-12T18:53:57.349Z,99506.76
2018-10-12T18:56:25.978Z,99507.58
2018-10-12T18:58:54.579Z,99504.66
2018-10-12T19:01:23.189Z,99509.97
2018-10-12T19:03:51.813Z,99513.02
2018-10-12T19:06:20.441Z,99509.62
2018-10-12T19:08:49.157Z,99515.36
2018-10-12T19:11:18.020Z,99510.03
2018-10-12T19:13:46.921Z,99514.05
2018-10-12T19:16:15.700Z,99513.41
2018-10-12T19:18:44.456Z,99513.80
2018-10-12T19:21:12.967Z,99516.05
2018-10-12T19:26:34.714Z,99520.05
2018-10-12T19:29:03.154Z,99517.91
2018-10-12T19:31:31.700Z,99524.05
2018-10-12T19:34:00.359Z,99526.14
2018-10-12T19:36:28.881Z,99525.30
2018-10-12T19:38:57.222Z,99529.81
2018-10-12T19:41:25.709Z,99530.45
2018-10-12T19:43:54.167Z,99531.19
2018-10-12T19:46:22.971Z,99534.55
2018-10-12T19:48:51.757Z,99542.27
2018-10-12T19:51:21.732Z,99545.94
2018-10-12T19:53:50.120Z,99536.13
2018-10-12T19:56:18.668Z,99536.55
2018-10-12T19:58:47.034Z,99543.33
2018-10-12T20:01:15.412Z,99539.94
2018-10-12T20:03:43.942Z,99540.05
2018-10-12T20:06:12.341Z,99543.83
2018-10-12T20:08:42.068Z,99538.98
2018-10-12T20:11:10.478Z,99535.58
2018-10-12T20:13:38.935Z,99536.64
2018-10-12T20:16:07.916Z,99535.58
2018-10-12T20:18:36.349Z,99529.93
2018-10-12T20:21:07.041Z,99538.27
2018-10-12T20:23:35.462Z,99542.65
2018-10-12T20:26:03.952Z,99545.47
2018-10-12T20:28:32.300Z,99544.81
2018-10-12T20:31:00.812Z,99545.05
2018-10-12T20:33:29.198Z,99543.28
2018-10-12T20:35:57.591Z,99548.77
2018-10-12T20:38:26.106Z,99553.20
2018-10-12T20:40:54.538Z,99552.73
2018-10-12T20:43:23.099Z,99560.64
2018-10-12T20:45:51.461Z,99555.45
2018-10-12T20:48:19.800Z,99555.86
2018-10-12T20:50:48.171Z,99559.52
2018-10-12T20:53:17.563Z,99557.67
2018-10-12T20:55:45.921Z,99557.98
2018-10-12T20:58:15.878Z,99559.31
2018-10-12T21:00:45.084Z,99565.20
2018-10-12T21:03:14.180Z,99564.13
2018-10-12T21:05:43.031Z,99560.14
2018-10-12T21:08:11.408Z,99560.07
2018-10-12T21:10:39.839Z,99559.94
2018-10-12T21:13:08.256Z,99562.64
2018-10-12T21:15:36.599Z,99560.45
2018-10-12T21:18:05.329Z,99555.95
2018-10-12T21:20:33.651Z,99558.52
2018-10-12T21:23:02.154Z,99555.37
2018-10-12T21:25:30.528Z,99554.06
2018-10-12T21:27:59.087Z,99557.81
2018-10-12T21:30:27.417Z,99549.34
2018-10-12T21:32:55.822Z,99548.31
2018-10-12T21:35:24.229Z,99554.25
2018-10-12T21:37:52.918Z,99553.66
2018-10-12T21:40:21.521Z,99552.52
2018-10-12T21:42:49.883Z,99550.98
2018-10-12T21:45:18.245Z,99551.62
2018-10-12T21:47:47.011Z,99552.11
2018-10-12T21:50:15.351Z,99546.75
2018-10-12T21:52:43.729Z,99545.69
2018-10-12T21:55:12.131Z,99548.77
2018-10-12T21:57:40.509Z,99546.45
2018-10-12T22:00:09.117Z,99554.60
2018-10-12T22:02:37.411Z,99553.31
2018-10-12T22:05:05.792Z,99552.23
2018-10-12T22:07:34.180Z,99545.86
2018-10-12T22:10:02.551Z,99548.23
2018-10-12T22:12:30.947Z,99544.70
2018-10-12T22:14:59.608Z,99542.98
2018-10-12T22:17:27.996Z,99542.59
2018-10-12T22:19:56.331Z,99545.98
2018-10-12T22:22:24.725Z,99544.64
2018-10-12T22:24:53.110Z,99546.02
2018-10-12T22:27:21.509Z,99539.64
2018-10-12T22:29:49.984Z,99544.27
2018-10-12T22:32:18.379Z,99535.55
2018-10-12T22:34:46.712Z,99536.15
2018-10-12T22:37:15.096Z,99535.14
2018-10-12T22:39:44.051Z,99532.83
2018-10-12T22:42:13.542Z,99540.10
2018-10-12T22:44:41.894Z,99530.92
2018-10-12T22:47:10.851Z,99530.58
2018-10-12T22:49:39.508Z,99527.11
2018-10-12T22:52:07.984Z,99528.55
2018-10-12T22:54:36.471Z,99525.38
2018-10-12T22:57:04.815Z,99527.79
2018-10-12T22:59:33.287Z,99525.24
2018-10-12T23:02:01.892Z,99528.23
2018-10-12T23:04:30.222Z,99522.20
2018-10-12T23:06:58.596Z,99525.98
2018-10-12T23:09:26.949Z,99527.27
2018-10-12T23:11:55.307Z,99530.56
2018-10-12T23:14:23.672Z,99523.44
2018-10-12T23:16:51.987Z,99523.45
2018-10-12T23:19:20.518Z,99524.56
2018-10-12T23:21:48.900Z,99529.25
2018-10-12T23:24:17.234Z,99525.18
2018-10-12T23:26:45.620Z,99530.89
2018-10-12T23:29:13.999Z,99524.20
2018-10-12T23:31:42.289Z,99527.23
2018-10-12T23:34:10.810Z,99527.59
2018-10-12T23:36:39.142Z,99526.72
2018-10-12T23:39:08.815Z,99520.27
2018-10-12T23:41:37.302Z,99522.38
2018-10-12T23:44:19.478Z,99524.26
2018-10-12T23:46:47.786Z,99528.31
2018-10-12T23:49:16.086Z,99524.90
2018-10-12T23:51:44.354Z,99525.54
2018-10-12T23:54:12.667Z,99526.88
2018-10-12T23:56:40.957Z,99530.52
2018-10-12T23:59:09.245Z,99524.93
